sensor_id;sensor_type;location;lat;lon;timestamp;pressure;altitude;pressure_sealevel;temperature;humidity
51452;BME280;37521;52.020;-1.740;2023-09-12T00:01:03;99633.13;;;14.98;100.00
51452;BME280;37521;52.020;-1.740;2023-09-12T00:03:34;99642.03;;;14.97;100.00
51452;BME280;37521;52.020;-1.740;2023-09-12T00:06:02;99631.41;;;14.97;100.00
51452;BME280;37521;52.020;-1.740;2023-09-12T00:08:31;99641.19;;;14.97;100.00
51452;BME280;37521;52.020;-1.740;2023-09-12T00:11:06;99641.19;;;14.97;100.00
51452;BME280;37521;52.020;-1.740;2023-09-12T00:13:38;99635.16;;;14.95;100.00
51452;BME280;37521;52.020;-1.740;2023-09-12T00:16:08;99625.47;;;14.94;100.00
51452;BME280;37521;52.020;-1.740;2023-09-12T00:18:38;99638.75;;;14.94;100.00
51452;BME280;37521;52.020;-1.740;2023-09-12T00:21:07;99636.09;;;14.94;100.00
51452;BME280;37521;52.020;-1.740;2023-09-12T00:23:36;99628.56;;;14.88;100.00
51452;BME280;37521;52.020;-1.740;2023-09-12T00:26:05;99630.69;;;14.83;100.00
51452;BME280;37521;52.020;-1.740;2023-09-12T00:28:34;99639.50;;;14.83;100.00
51452;BME280;37521;52.020;-1.740;2023-09-12T00:31:04;99632.50;;;14.82;100.00
51452;BME280;37521;52.020;-1.740;2023-09-12T00:33:32;99627.41;;;14.79;100.00
51452;BME280;37521;52.020;-1.740;2023-09-12T00:36:01;99623.13;;;14.77;100.00
51452;BME280;37521;52.020;-1.740;2023-09-12T00:38:29;99628.88;;;14.70;100.00
51452;BME280;37521;52.020;-1.740;2023-09-12T00:40:59;99631.94;;;14.64;100.00
51452;BME280;37521;52.020;-1.740;2023-09-12T00:43:29;99631.63;;;14.56;100.00
51452;BME280;37521;52.020;-1.740;2023-09-12T00:45:57;99623.88;;;14.53;100.00
51452;BME280;37521;52.020;-1.740;2023-09-12T00:48:26;99623.34;;;14.48;100.00
51452;BME280;37521;52.020;-1.740;2023-09-12T00:50:55;99620.97;;;14.43;100.00
51452;BME280;37521;52.020;-1.740;2023-09-12T00:53:25;99633.63;;;14.40;100.00
51452;BME280;37521;52.020;-1.740;2023-09-12T00:55:56;99634.78;;;14.36;100.00
51452;BME280;37521;52.020;-1.740;2023-09-12T00:58:28;99631.16;;;14.37;100.00
51452;BME280;37521;52.020;-1.740;2023-09-12T01:00:57;99633.81;;;14.37;100.00
51452;BME280;37521;52.020;-1.740;2023-09-12T01:03:26;99633.06;;;14.35;100.00
51452;BME280;37521;52.020;-1.740;2023-09-12T01:05:57;99631.38;;;14.34;100.00
51452;BME280;37521;52.020;-1.740;2023-09-12T01:08:26;99632.44;;;14.31;100.00
51452;BME280;37521;52.020;-1.740;2023-09-12T01:10:55;99627.97;;;14.32;100.00
51452;BME280;37521;52.020;-1.740;2023-09-12T01:13:26;99627.97;;;14.32;100.00
51452;BME280;37521;52.020;-1.740;2023-09-12T01:15:56;99629.88;;;14.30;100.00
51452;BME280;37521;52.020;-1.740;2023-09-12T01:18:25;99631.06;;;14.26;100.00
51452;BME280;37521;52.020;-1.740;2023-09-12T01:24:11;99624.34;;;14.20;100.00
51452;BME280;37521;52.020;-1.740;2023-09-12T01:26:44;99627.28;;;14.15;100.00
51452;BME280;37521;52.020;-1.740;2023-09-12T01:29:21;99616.69;;;14.15;100.00
51452;BME280;37521;52.020;-1.740;2023-09-12T01:31:52;99630.91;;;14.14;100.00
51452;BME280;37521;52.020;-1.740;2023-09-12T01:34:22;99620.28;;;14.14;100.00
51452;BME280;37521;52.020;-1.740;2023-09-12T01:36:50;99614.75;;;14.17;100.00
51452;BME280;37521;52.020;-1.740;2023-09-12T01:39:18;99623.38;;;14.21;100.00
51452;BME280;37521;52.020;-1.740;2023-09-12T01:41:48;99612.66;;;14.23;100.00
51452;BME280;37521;52.020;-1.740;2023-09-12T01:44:20;99612.53;;;14.24;100.00
51452;BME280;37521;52.020;-1.740;2023-09-12T01:46:53;99615.75;;;14.29;100.00
51452;BME280;37521;52.020;-1.740;2023-09-12T01:49:23;99611.09;;;14.33;100.00
51452;BME280;37521;52.020;-1.740;2023-09-12T01:51:53;99609.91;;;14.37;100.00
51452;BME280;37521;52.020;-1.740;2023-09-12T01:54:21;99603.66;;;14.38;100.00
51452;BME280;37521;52.020;-1.740;2023-09-12T01:56:51;99614.06;;;14.41;100.00
51452;BME280;37521;52.020;-1.740;2023-09-12T01:59:21;99616.50;;;14.44;100.00
51452;BME280;37521;52.020;-1.740;2023-09-12T02:01:49;99630.56;;;14.46;100.00
51452;BME280;37521;52.020;-1.740;2023-09-12T02:04:17;99625.16;;;14.48;100.00
51452;BME280;37521;52.020;-1.740;2023-09-12T02:06:46;99626.00;;;14.48;100.00
51452;BME280;37521;52.020;-1.740;2023-09-12T02:09:15;99625.81;;;14.51;100.00
51452;BME280;37521;52.020;-1.740;2023-09-12T02:11:44;99629.31;;;14.52;100.00
51452;BME280;37521;52.020;-1.740;2023-09-12T02:14:12;99619.53;;;14.52;100.00
51452;BME280;37521;52.020;-1.740;2023-09-12T02:16:42;99621.13;;;14.55;100.00
51452;BME280;37521;52.020;-1.740;2023-09-12T02:19:11;99623.66;;;14.56;100.00
51452;BME280;37521;52.020;-1.740;2023-09-12T02:21:39;99624.44;;;14.58;100.00
51452;BME280;37521;52.020;-1.740;2023-09-12T02:24:08;99622.69;;;14.57;100.00
51452;BME280;37521;52.020;-1.740;2023-09-12T02:26:36;99614.00;;;14.55;100.00
51452;BME280;37521;52.020;-1.740;2023-09-12T02:29:05;99613.16;;;14.55;100.00
51452;BME280;37521;52.020;-1.740;2023-09-12T02:31:34;99615.06;;;14.53;100.00
51452;BME280;37521;52.020;-1.740;2023-09-12T02:34:04;99616.88;;;14.52;100.00
51452;BME280;37521;52.020;-1.740;2023-09-12T02:36:33;99614.22;;;14.52;100.00
51452;BME280;37521;52.020;-1.740;2023-09-12T02:39:01;99610.72;;;14.52;100.00
51452;BME280;37521;52.020;-1.740;2023-09-12T02:41:30;99607.09;;;14.53;100.00
51452;BME280;37521;52.020;-1.740;2023-09-12T02:43:59;99615.91;;;14.53;100.00
51452;BME280;37521;52.020;-1.740;2023-09-12T02:46:28;99614.97;;;14.54;100.00
51452;BME280;37521;52.020;-1.740;2023-09-12T02:48:56;99610.59;;;14.53;100.00
51452;BME280;37521;52.020;-1.740;2023-09-12T02:51:28;99607.00;;;14.54;100.00
51452;BME280;37521;52.020;-1.740;2023-09-12T02:53:56;99611.56;;;14.52;100.00
51452;BME280;37521;52.020;-1.740;2023-09-12T02:56:25;99616.88;;;14.52;100.00
51452;BME280;37521;52.020;-1.740;2023-09-12T02:58:54;99615.25;;;14.50;100.00
51452;BME280;37521;52.020;-1.740;2023-09-12T03:01:23;99620.38;;;14.53;100.00
51452;BME280;37521;52.020;-1.740;2023-09-12T03:03:55;99613.25;;;14.53;100.00
51452;BME280;37521;52.020;-1.740;2023-09-12T03:06:27;99614.00;;;14.55;100.00
51452;BME280;37521;52.020;-1.740;2023-09-12T03:08:56;99621.00;;;14.56;100.00
51452;BME280;37521;52.020;-1.740;2023-09-12T03:11:26;99617.63;;;14.54;100.00
51452;BME280;37521;52.020;-1.740;2023-09-12T03:13:55;99623.88;;;14.53;100.00
51452;BME280;37521;52.020;-1.740;2023-09-12T03:16:23;99628.47;;;14.51;100.00
51452;BME280;37521;52.020;-1.740;2023-09-12T03:18:52;99624.09;;;14.50;100.00
51452;BME280;37521;52.020;-1.740;2023-09-12T03:21:20;99618.88;;;14.49;100.00
51452;BME280;37521;52.020;-1.740;2023-09-12T03:23:50;99619.72;;;14.49;100.00
51452;BME280;37521;52.020;-1.740;2023-09-12T03:26:19;99616.09;;;14.50;100.00
51452;BME280;37521;52.020;-1.740;2023-09-12T03:28:49;99620.69;;;14.48;100.00
51452;BME280;37521;52.020;-1.740;2023-09-12T03:31:18;99616.34;;;14.47;100.00
51452;BME280;37521;52.020;-1.740;2023-09-12T03:33:46;99613.69;;;14.47;100.00
51452;BME280;37521;52.020;-1.740;2023-09-12T03:36:18;99619.00;;;14.47;100.00
51452;BME280;37521;52.020;-1.740;2023-09-12T03:38:47;99612.72;;;14.48;100.00
51452;BME280;37521;52.020;-1.740;2023-09-12T03:41:18;99609.09;;;14.49;100.00
51452;BME280;37521;52.020;-1.740;2023-09-12T03:43:46;99607.22;;;14.51;100.00
51452;BME280;37521;52.020;-1.740;2023-09-12T03:46:15;99604.63;;;14.50;100.00
51452;BME280;37521;52.020;-1.740;2023-09-12T03:48:43;99609.09;;;14.49;100.00
51452;BME280;37521;52.020;-1.740;2023-09-12T03:51:13;99604.00;;;14.46;100.00
51452;BME280;37521;52.020;-1.740;2023-09-12T03:53:41;99597.06;;;14.43;100.00
51452;BME280;37521;52.020;-1.740;2023-09-12T03:56:10;99591.84;;;14.42;100.00
51452;BME280;37521;52.020;-1.740;2023-09-12T03:58:41;99592.69;;;14.42;100.00
51452;BME280;37521;52.020;-1.740;2023-09-12T04:01:10;99588.25;;;14.43;100.00
51452;BME280;37521;52.020;-1.740;2023-09-12T04:03:39;99600.56;;;14.44;100.00
51452;BME280;37521;52.020;-1.740;2023-09-12T04:06:08;99591.84;;;14.42;100.00
51452;BME280;37521;52.020;-1.740;2023-09-12T04:08:37;99590.16;;;14.41;100.00
51452;BME280;37521;52.020;-1.740;2023-09-12T04:11:07;99590.91;;;14.43;100.00
51452;BME280;37521;52.020;-1.740;2023-09-12T04:13:37;99586.34;;;14.45;100.00
51452;BME280;37521;52.020;-1.740;2023-09-12T04:16:07;99588.25;;;14.43;100.00
51452;BME280;37521;52.020;-1.740;2023-09-12T04:18:36;99588.25;;;14.43;100.00
51452;BME280;37521;52.020;-1.740;2023-09-12T04:21:05;99593.78;;;14.40;100.00
51452;BME280;37521;52.020;-1.740;2023-09-12T04:23:34;99586.13;;;14.35;100.00
51452;BME280;37521;52.020;-1.740;2023-09-12T04:26:02;99581.88;;;14.33;100.00
51452;BME280;37521;52.020;-1.740;2023-09-12T04:28:31;99577.41;;;14.33;100.00
51452;BME280;37521;52.020;-1.740;2023-09-12T04:31:03;99578.25;;;14.34;100.00
51452;BME280;37521;52.020;-1.740;2023-09-12T04:33:33;99570.28;;;14.34;100.00
51452;BME280;37521;52.020;-1.740;2023-09-12T04:36:02;99573.06;;;14.32;100.00
51452;BME280;37521;52.020;-1.740;2023-09-12T04:38:31;99566.97;;;14.30;100.00
51452;BME280;37521;52.020;-1.740;2023-09-12T04:41:02;99567.81;;;14.31;100.00
51452;BME280;37521;52.020;-1.740;2023-09-12T04:43:32;99572.94;;;14.34;100.00
51452;BME280;37521;52.020;-1.740;2023-09-12T04:46:00;99572.94;;;14.34;100.00
51452;BME280;37521;52.020;-1.740;2023-09-12T04:48:29;99571.25;;;14.33;100.00
51452;BME280;37521;52.020;-1.740;2023-09-12T04:51:00;99565.09;;;14.32;100.00
51452;BME280;37521;52.020;-1.740;2023-09-12T04:53:28;99571.44;;;14.30;100.00
51452;BME280;37521;52.020;-1.740;2023-09-12T04:56:03;99571.44;;;14.30;100.00
51452;BME280;37521;52.020;-1.740;2023-09-12T04:58:33;99580.38;;;14.29;100.00
51452;BME280;37521;52.020;-1.740;2023-09-12T05:01:02;99575.16;;;14.27;100.00
51452;BME280;37521;52.020;-1.740;2023-09-12T05:03:30;99577.16;;;14.24;100.00
51452;BME280;37521;52.020;-1.740;2023-09-12T05:06:02;99579.81;;;14.24;100.00
51452;BME280;37521;52.020;-1.740;2023-09-12T05:08:30;99571.84;;;14.24;100.00
51452;BME280;37521;52.020;-1.740;2023-09-12T05:11:00;99578.91;;;14.25;100.00
51452;BME280;37521;52.020;-1.740;2023-09-12T05:13:29;99584.41;;;14.22;100.00
51452;BME280;37521;52.020;-1.740;2023-09-12T05:15:58;99579.31;;;14.18;100.00
51452;BME280;37521;52.020;-1.740;2023-09-12T05:18:26;99587.34;;;14.17;100.00
51452;BME280;37521;52.020;-1.740;2023-09-12T05:20:55;99583.13;;;14.14;100.00
51452;BME280;37521;52.020;-1.740;2023-09-12T05:23:25;99588.66;;;14.11;100.00
51452;BME280;37521;52.020;-1.740;2023-09-12T05:25:53;99583.34;;;14.11;100.00
51452;BME280;37521;52.020;-1.740;2023-09-12T05:28:22;99593.97;;;14.11;100.00
51452;BME280;37521;52.020;-1.740;2023-09-12T05:30:51;99588.66;;;14.11;100.00
51452;BME280;37521;52.020;-1.740;2023-09-12T05:33:20;99590.34;;;14.12;100.00
51452;BME280;37521;52.020;-1.740;2023-09-12T05:35:49;99591.19;;;14.13;100.00
51452;BME280;37521;52.020;-1.740;2023-09-12T05:38:17;99585.03;;;14.12;100.00
51452;BME280;37521;52.020;-1.740;2023-09-12T05:40:47;99585.03;;;14.12;100.00
51452;BME280;37521;52.020;-1.740;2023-09-12T05:43:17;99585.03;;;14.12;100.00
51452;BME280;37521;52.020;-1.740;2023-09-12T05:45:46;99592.03;;;14.13;100.00
51452;BME280;37521;52.020;-1.740;2023-09-12T05:48:14;99596.28;;;14.16;100.00
51452;BME280;37521;52.020;-1.740;2023-09-12T05:50:43;99599.72;;;14.18;100.00
51452;BME280;37521;52.020;-1.740;2023-09-12T05:53:11;99593.31;;;14.21;100.00
51452;BME280;37521;52.020;-1.740;2023-09-12T05:55:40;99601.19;;;14.22;100.00
51452;BME280;37521;52.020;-1.740;2023-09-12T05:58:10;99596.53;;;14.26;100.00
51452;BME280;37521;52.020;-1.740;2023-09-12T06:00:38;99596.31;;;14.29;100.00
51452;BME280;37521;52.020;-1.740;2023-09-12T06:03:07;99604.09;;;14.32;100.00
51452;BME280;37521;52.020;-1.740;2023-09-12T06:05:36;99608.44;;;14.33;100.00
51452;BME280;37521;52.020;-1.740;2023-09-12T06:08:05;99609.06;;;14.36;100.00
51452;BME280;37521;52.020;-1.740;2023-09-12T06:10:33;99607.25;;;14.37;100.00
51452;BME280;37521;52.020;-1.740;2023-09-12T06:13:02;99608.00;;;14.39;100.00
51452;BME280;37521;52.020;-1.740;2023-09-12T06:15:32;99612.38;;;14.40;100.00
51452;BME280;37521;52.020;-1.740;2023-09-12T06:18:00;99607.78;;;14.42;100.00
51452;BME280;37521;52.020;-1.740;2023-09-12T06:20:29;99609.50;;;14.43;100.00
51452;BME280;37521;52.020;-1.740;2023-09-12T06:22:58;99616.50;;;14.44;100.00
51452;BME280;37521;52.020;-1.740;2023-09-12T06:25:27;99615.66;;;14.43;100.00
51452;BME280;37521;52.020;-1.740;2023-09-12T06:27:56;99614.81;;;14.43;100.00
51452;BME280;37521;52.020;-1.740;2023-09-12T06:30:25;99617.38;;;14.44;100.00
51452;BME280;37521;52.020;-1.740;2023-09-12T06:32:55;99614.63;;;14.46;100.00
51452;BME280;37521;52.020;-1.740;2023-09-12T06:35:23;99619.94;;;14.46;100.00
51452;BME280;37521;52.020;-1.740;2023-09-12T06:37:52;99616.50;;;14.44;100.00
51452;BME280;37521;52.020;-1.740;2023-09-12T06:40:20;99622.78;;;14.43;100.00
51452;BME280;37521;52.020;-1.740;2023-09-12T06:42:49;99613.09;;;14.42;100.00
51452;BME280;37521;52.020;-1.740;2023-09-12T06:45:17;99619.38;;;14.41;100.00
51452;BME280;37521;52.020;-1.740;2023-09-12T06:47:46;99613.31;;;14.39;100.00
51452;BME280;37521;52.020;-1.740;2023-09-12T06:50:16;99625.75;;;14.38;100.00
51452;BME280;37521;52.020;-1.740;2023-09-12T06:52:44;99620.53;;;14.37;100.00
51452;BME280;37521;52.020;-1.740;2023-09-12T06:55:13;99618.63;;;14.39;100.00
51452;BME280;37521;52.020;-1.740;2023-09-12T06:57:41;99622.88;;;14.41;100.00
51452;BME280;37521;52.020;-1.740;2023-09-12T07:00:11;99621.06;;;14.42;100.00
51452;BME280;37521;52.020;-1.740;2023-09-12T07:02:40;99618.41;;;14.42;100.00
51452;BME280;37521;52.020;-1.740;2023-09-12T07:05:09;99624.38;;;14.45;100.00
51452;BME280;37521;52.020;-1.740;2023-09-12T07:07:38;99627.69;;;14.49;100.00
51452;BME280;37521;52.020;-1.740;2023-09-12T07:10:07;99632.91;;;14.51;100.00
51452;BME280;37521;52.020;-1.740;2023-09-12T07:12:52;99634.50;;;14.53;100.00
51452;BME280;37521;52.020;-1.740;2023-09-12T07:15:21;99636.31;;;14.53;100.00
51452;BME280;37521;52.020;-1.740;2023-09-12T07:17:49;99634.50;;;14.53;100.00
51452;BME280;37521;52.020;-1.740;2023-09-12T07:20:18;99640.56;;;14.55;100.00
51452;BME280;37521;52.020;-1.740;2023-09-12T07:22:48;99642.47;;;14.53;100.00
51452;BME280;37521;52.020;-1.740;2023-09-12T07:25:17;99643.44;;;14.52;100.00
51452;BME280;37521;52.020;-1.740;2023-09-12T07:27:46;99645.44;;;14.49;100.00
51452;BME280;37521;52.020;-1.740;2023-09-12T07:30:15;99640.25;;;14.47;100.00
51452;BME280;37521;52.020;-1.740;2023-09-12T07:32:44;99643.16;;;14.42;100.00
51452;BME280;37521;52.020;-1.740;2023-09-12T07:35:12;99643.50;;;14.38;100.00
51452;BME280;37521;52.020;-1.740;2023-09-12T07:37:40;99641.03;;;14.35;100.00
51452;BME280;37521;52.020;-1.740;2023-09-12T07:40:11;99636.56;;;14.35;100.00
51452;BME280;37521;52.020;-1.740;2023-09-12T07:42:40;99637.53;;;14.34;100.00
51452;BME280;37521;52.020;-1.740;2023-09-12T07:45:10;99642.00;;;14.34;100.00
51452;BME280;37521;52.020;-1.740;2023-09-12T07:47:38;99645.38;;;14.36;100.00
51452;BME280;37521;52.020;-1.740;2023-09-12T07:50:07;99649.97;;;14.34;100.00
51452;BME280;37521;52.020;-1.740;2023-09-12T07:52:36;99655.47;;;14.31;100.00
51452;BME280;37521;52.020;-1.740;2023-09-12T07:55:06;99660.03;;;14.29;100.00
51452;BME280;37521;52.020;-1.740;2023-09-12T07:57:36;99656.66;;;14.27;100.00
51452;BME280;37521;52.020;-1.740;2023-09-12T08:00:06;99655.91;;;14.25;100.00
51452;BME280;37521;52.020;-1.740;2023-09-12T08:02:37;99664.06;;;14.22;100.00
51452;BME280;37521;52.020;-1.740;2023-09-12T08:05:07;99662.38;;;14.21;100.00
51452;BME280;37521;52.020;-1.740;2023-09-12T08:07:36;99663.88;;;14.25;100.00
51452;BME280;37521;52.020;-1.740;2023-09-12T08:10:06;99659.00;;;14.31;100.00
51452;BME280;37521;52.020;-1.740;2023-09-12T08:12:36;99661.75;;;14.30;100.00
51452;BME280;37521;52.020;-1.740;2023-09-12T08:15:08;99664.31;;;14.31;100.00
51452;BME280;37521;52.020;-1.740;2023-09-12T08:17:38;99665.91;;;14.34;100.00
51452;BME280;37521;52.020;-1.740;2023-09-12T08:20:08;99666.44;;;14.39;100.00
51452;BME280;37521;52.020;-1.740;2023-09-12T08:22:37;99675.47;;;14.36;100.00
51452;BME280;37521;52.020;-1.740;2023-09-12T08:25:06;99675.38;;;14.38;100.00
51452;BME280;37521;52.020;-1.740;2023-09-12T08:27:35;99677.25;;;14.36;100.00
51452;BME280;37521;52.020;-1.740;2023-09-12T08:30:04;99673.66;;;14.37;100.00
51452;BME280;37521;52.020;-1.740;2023-09-12T08:32:34;99672.81;;;14.36;100.00
51452;BME280;37521;52.020;-1.740;2023-09-12T08:35:03;99675.47;;;14.36;100.00
51452;BME280;37521;52.020;-1.740;2023-09-12T08:37:32;99675.78;;;14.32;100.00
51452;BME280;37521;52.020;-1.740;2023-09-12T08:40:01;99674.28;;;14.28;100.00
51452;BME280;37521;52.020;-1.740;2023-09-12T08:42:39;99671.28;;;14.20;100.00
51452;BME280;37521;52.020;-1.740;2023-09-12T08:45:12;99680.09;;;14.20;100.00
51452;BME280;37521;52.020;-1.740;2023-09-12T08:47:44;99681.69;;;14.23;100.00
51452;BME280;37521;52.020;-1.740;2023-09-12T08:50:14;99682.47;;;14.25;100.00
51452;BME280;37521;52.020;-1.740;2023-09-12T08:52:45;99680.53;;;14.27;100.00
51452;BME280;37521;52.020;-1.740;2023-09-12T08:55:32;99679.38;;;14.31;100.00
51452;BME280;37521;52.020;-1.740;2023-09-12T08:58:04;99689.59;;;14.37;100.00
51452;BME280;37521;52.020;-1.740;2023-09-12T09:00:34;99692.06;;;14.40;100.00
51452;BME280;37521;52.020;-1.740;2023-09-12T09:03:05;99691.31;;;14.38;100.00
51452;BME280;37521;52.020;-1.740;2023-09-12T09:05:35;99689.41;;;14.40;100.00
51452;BME280;37521;52.020;-1.740;2023-09-12T09:08:06;99692.78;;;14.42;100.00
51452;BME280;37521;52.020;-1.740;2023-09-12T09:10:36;99696.03;;;14.47;100.00
51452;BME280;37521;52.020;-1.740;2023-09-12T09:13:16;99692.97;;;14.53;100.00
51452;BME280;37521;52.020;-1.740;2023-09-12T09:15:44;99697.31;;;14.54;100.00
51452;BME280;37521;52.020;-1.740;2023-09-12T09:18:15;99703.28;;;14.58;100.00
51452;BME280;37521;52.020;-1.740;2023-09-12T09:20:43;99689.88;;;14.59;100.00
51452;BME280;37521;52.020;-1.740;2023-09-12T09:23:16;99694.97;;;14.62;100.00
51452;BME280;37521;52.020;-1.740;2023-09-12T09:25:51;99697.53;;;14.64;100.00
51452;BME280;37521;52.020;-1.740;2023-09-12T09:28:21;99700.41;;;14.61;100.00
51452;BME280;37521;52.020;-1.740;2023-09-12T09:30:51;99694.13;;;14.49;100.00
51452;BME280;37521;52.020;-1.740;2023-09-12T09:33:23;99704.38;;;14.41;100.00
51452;BME280;37521;52.020;-1.740;2023-09-12T09:36:02;99711.59;;;14.39;100.00
51452;BME280;37521;52.020;-1.740;2023-09-12T09:38:31;99705.44;;;14.38;100.00
51452;BME280;37521;52.020;-1.740;2023-09-12T09:41:03;99698.72;;;14.33;100.00
51452;BME280;37521;52.020;-1.740;2023-09-12T09:43:32;99703.50;;;14.28;100.00
51452;BME280;37521;52.020;-1.740;2023-09-12T09:46:02;99699.13;;;14.27;100.00
51452;BME280;37521;52.020;-1.740;2023-09-12T09:48:32;99699.13;;;14.27;100.00
51452;BME280;37521;52.020;-1.740;2023-09-12T09:51:03;99695.53;;;14.28;100.00
51452;BME280;37521;52.020;-1.740;2023-09-12T09:53:32;99704.16;;;14.31;100.00
51452;BME280;37521;52.020;-1.740;2023-09-12T09:56:08;99700.63;;;14.31;100.00
51452;BME280;37521;52.020;-1.740;2023-09-12T09:58:42;99704.03;;;14.33;100.00
51452;BME280;37521;52.020;-1.740;2023-09-12T10:01:17;99696.41;;;14.41;100.00
51452;BME280;37521;52.020;-1.740;2023-09-12T10:03:48;99701.03;;;14.52;100.00
51452;BME280;37521;52.020;-1.740;2023-09-12T10:06:19;99695.84;;;14.63;100.00
51452;BME280;37521;52.020;-1.740;2023-09-12T10:08:50;99702.25;;;14.73;100.00
51452;BME280;37521;52.020;-1.740;2023-09-12T10:11:22;99697.03;;;14.71;100.00
51452;BME280;37521;52.020;-1.740;2023-09-12T10:13:53;99700.00;;;14.67;100.00
51452;BME280;37521;52.020;-1.740;2023-09-12T10:16:24;99704.56;;;14.65;100.00
51452;BME280;37521;52.020;-1.740;2023-09-12T10:18:58;99707.53;;;14.60;100.00
51452;BME280;37521;52.020;-1.740;2023-09-12T10:21:30;99699.00;;;14.55;100.00
51452;BME280;37521;52.020;-1.740;2023-09-12T10:23:59;99700.72;;;14.56;100.00
51452;BME280;37521;52.020;-1.740;2023-09-12T10:26:31;99697.00;;;14.59;100.00
51452;BME280;37521;52.020;-1.740;2023-09-12T10:29:02;99701.38;;;14.60;100.00
51452;BME280;37521;52.020;-1.740;2023-09-12T10:31:32;99706.56;;;14.61;100.00
51452;BME280;37521;52.020;-1.740;2023-09-12T10:34:04;99697.88;;;14.59;100.00
51452;BME280;37521;52.020;-1.740;2023-09-12T10:36:38;99697.75;;;14.61;100.00
51452;BME280;37521;52.020;-1.740;2023-09-12T10:39:08;99696.91;;;14.60;100.00
51452;BME280;37521;52.020;-1.740;2023-09-12T10:41:38;99692.13;;;14.65;100.00
51452;BME280;37521;52.020;-1.740;2023-09-12T10:44:10;99694.38;;;14.71;100.00
51452;BME280;37521;52.020;-1.740;2023-09-12T10:46:40;99688.84;;;14.75;100.00
51452;BME280;37521;52.020;-1.740;2023-09-12T10:49:12;99692.75;;;14.69;100.00
51452;BME280;37521;52.020;-1.740;2023-09-12T10:51:42;99699.88;;;14.68;100.00
51452;BME280;37521;52.020;-1.740;2023-09-12T10:54:14;99696.06;;;14.73;100.00
51452;BME280;37521;52.020;-1.740;2023-09-12T10:56:42;99695.66;;;14.79;100.00
51452;BME280;37521;52.020;-1.740;2023-09-12T10:59:17;99691.63;;;14.86;100.00
51452;BME280;37521;52.020;-1.740;2023-09-12T11:01:46;99698.41;;;14.90;100.00
51452;BME280;37521;52.020;-1.740;2023-09-12T11:04:31;99693.09;;;14.90;100.00
51452;BME280;37521;52.020;-1.740;2023-09-12T11:07:02;99698.31;;;14.91;100.00
51452;BME280;37521;52.020;-1.740;2023-09-12T11:10:18;99692.66;;;14.96;100.00
51452;BME280;37521;52.020;-1.740;2023-09-12T11:12:48;99697.56;;;15.02;100.00
51452;BME280;37521;52.020;-1.740;2023-09-12T11:15:19;99692.25;;;15.02;100.00
51452;BME280;37521;52.020;-1.740;2023-09-12T11:17:49;99694.28;;;15.11;100.00
51452;BME280;37521;52.020;-1.740;2023-09-12T11:20:19;99693.81;;;15.17;100.00
51452;BME280;37521;52.020;-1.740;2023-09-12T11:22:50;99694.59;;;15.19;100.00
51452;BME280;37521;52.020;-1.740;2023-09-12T11:25:20;99690.72;;;15.23;100.00
51452;BME280;37521;52.020;-1.740;2023-09-12T11:28:04;99685.53;;;15.22;100.00
51452;BME280;37521;52.020;-1.740;2023-09-12T11:30:33;99692.34;;;15.26;100.00
51452;BME280;37521;52.020;-1.740;2023-09-12T11:33:04;99682.56;;;15.26;100.00
51452;BME280;37521;52.020;-1.740;2023-09-12T11:35:37;99690.72;;;15.23;100.00
51452;BME280;37521;52.020;-1.740;2023-09-12T11:38:10;99689.03;;;15.22;100.00
51452;BME280;37521;52.020;-1.740;2023-09-12T11:40:43;99693.72;;;15.32;100.00
51452;BME280;37521;52.020;-1.740;2023-09-12T11:43:21;99695.31;;;15.34;100.00
51452;BME280;37521;52.020;-1.740;2023-09-12T11:45:51;99689.56;;;15.40;100.00
51452;BME280;37521;52.020;-1.740;2023-09-12T11:48:20;99689.44;;;15.42;100.00
51452;BME280;37521;52.020;-1.740;2023-09-12T11:50:54;99691.56;;;15.37;100.00
51452;BME280;37521;52.020;-1.740;2023-09-12T11:53:24;99696.69;;;15.40;100.00
51452;BME280;37521;52.020;-1.740;2023-09-12T11:55:55;99696.25;;;15.46;100.00
51452;BME280;37521;52.020;-1.740;2023-09-12T11:58:25;99691.53;;;15.49;100.00
51452;BME280;37521;52.020;-1.740;2023-09-12T12:00:56;99685.38;;;15.49;100.00
51452;BME280;37521;52.020;-1.740;2023-09-12T12:03:27;99686.97;;;15.51;100.00
51452;BME280;37521;52.020;-1.740;2023-09-12T12:05:58;99688.56;;;15.54;100.00
51452;BME280;37521;52.020;-1.740;2023-09-12T12:08:27;99692.91;;;15.55;100.00
51452;BME280;37521;52.020;-1.740;2023-09-12T12:10:59;99694.09;;;15.51;100.00
51452;BME280;37521;52.020;-1.740;2023-09-12T12:13:28;99684.94;;;15.55;100.00
51452;BME280;37521;52.020;-1.740;2023-09-12T12:15:57;99688.56;;;15.67;100.00
51452;BME280;37521;52.020;-1.740;2023-09-12T12:18:27;99687.28;;;15.72;100.00
51452;BME280;37521;52.020;-1.740;2023-09-12T12:20:55;99682.44;;;15.77;100.00
51452;BME280;37521;52.020;-1.740;2023-09-12T12:23:26;99686.91;;;15.77;100.00
51452;BME280;37521;52.020;-1.740;2023-09-12T12:25:54;99681.72;;;15.75;100.00
51452;BME280;37521;52.020;-1.740;2023-09-12T12:28:23;99681.03;;;15.85;100.00
51452;BME280;37521;52.020;-1.740;2023-09-12T12:30:53;99680.88;;;15.99;100.00
51452;BME280;37521;52.020;-1.740;2023-09-12T12:33:22;99668.38;;;16.12;100.00
51452;BME280;37521;52.020;-1.740;2023-09-12T12:36:11;99677.41;;;16.33;100.00
51452;BME280;37521;52.020;-1.740;2023-09-12T12:38:41;99672.38;;;16.53;100.00
51452;BME280;37521;52.020;-1.740;2023-09-12T12:41:24;99670.47;;;16.66;100.00
51452;BME280;37521;52.020;-1.740;2023-09-12T12:44:01;99674.00;;;16.67;100.00
51452;BME280;37521;52.020;-1.740;2023-09-12T12:46:31;99673.81;;;16.57;100.00
51452;BME280;37521;52.020;-1.740;2023-09-12T12:48:59;99671.63;;;16.40;100.00
51452;BME280;37521;52.020;-1.740;2023-09-12T12:51:30;99673.84;;;16.22;100.00
51452;BME280;37521;52.020;-1.740;2023-09-12T12:54:04;99676.56;;;16.09;100.00
51452;BME280;37521;52.020;-1.740;2023-09-12T12:56:34;99682.31;;;15.92;100.00
51452;BME280;37521;52.020;-1.740;2023-09-12T12:59:04;99679.34;;;15.84;100.00